首页
METAR-TAF:

METAR-TAF

机场 :

特倫頓空軍基地

特伦顿, 安大略省, 加拿大

纬度: 44-07N, 经度: 077-32W, 海拔: 85米

当前天气观测

该预报发布于52分钟前的16:00 UTC
风速6节,风向东北
温度 -5°C
湿度 63%
气压 1028 hPa
能見度: 24.1公里
少量云层高于3000英尺

METAR: CYTR 171600Z 05006KT 15SM FEW030 M05/M11 A3035 RMK SC2 SLP284

时间: 11:52 (16:52 UTC)

预报

该预报发布于5小时和22分钟前的11:30 UTC
预报有效从17日的 12点(UTC)到 18日的 12点(UTC)
风速7节,风向北转西北
能見度: 10公里
散云层高于5000英尺
从 17日的 1400点(UTC)
风速5节,风向
能見度: 10公里
天空无云
成为
从 17日的 17点(UTC)到 17日的 19点(UTC)
风速3节,风向多变
从 17日的 2200点(UTC)
风速5节,风向
能見度: 10公里
多云层高于24000英尺
从 18日的 0400点(UTC)
风速8节,风向
能見度: 10公里
阴天层高于12000英尺
从 18日的 0800点(UTC)
风速10节,风向
能見度: 9.7公里
阴天层高于3000英尺
小雪
从 18日的 1000点(UTC)
风速12节,风向东南,有时为22节阵风
能見度: 1.2公里
层高于800英尺
小雪

TAF: CYTR 171130Z 1712/1812 34007KT P6SM SCT050 FM171400 36005KT P6SM SKC BECMG 1717/1719 VRB03KT FM172200 09005KT P6SM BKN240 FM180400 08008KT P6SM OVC120 FM180800 09010KT 6SM -SN OVC030 FM181000 13012G22KT 3/4SM -SN VV008 RMK NXT FCST BY 171800Z

超过4000个机场的气象观测和天气预报(METAR&TAF报告)。

可查询的气象台以黄色和红色小点在地图上表示。

将鼠标移到小点上方,可查看气象台名称。

然后点击查看天气观测和预报。

如需切换地图:点击带黑十字的绿色按钮放大地图;点击带横线的绿色按钮缩小地图;或者点击绿色箭头查看邻近地区的地图。


METAR-TAF: